Time;durP1;ratioP1;P1;durP2;ratioP2;P2;SDS_P1;SDS_P2;PMS_P1;PMS_P2;Temp;Humidity;BMP_temperature;BMP_pressure;BME280_temperature;BME280_humidity;BME280_pressure;Samples;Min_cycle;Max_cycle;Signal;HPM_P1;HPM_P2
2022/01/14 00:01:55;;;;;;;57.33;27.10;;;;;;;;;;5070458;28;20667;-71
2022/01/14 00:04:24;;;;;;;54.43;27.60;;;;;;;;;;5071434;28;20213;-72
2022/01/14 00:06:54;;;;;;;57.23;28.40;;;;;;;;;;5072794;28;20285;-72
2022/01/14 00:09:23;;;;;;;58.20;28.37;;;;;;;;;;5072254;28;20224;-71
2022/01/14 00:11:54;;;;;;;61.40;27.37;;;;;;;;;;5071177;28;20203;-73
2022/01/14 00:14:36;;;;;;;53.97;27.90;;;;;;;;;;5072140;28;20213;-71
2022/01/14 00:17:05;;;;;;;60.20;28.23;;;;;;;;;;5072295;28;20227;-73
2022/01/14 00:19:34;;;;;;;57.77;28.10;;;;;;;;;;5072683;28;20207;-72
2022/01/14 00:22:08;;;;;;;56.60;27.77;;;;;;;;;;5072058;28;20220;-71
2022/01/14 00:33:00;;;;;;;50.20;26.23;;;;;;;;;;5076392;28;20713;-72
2022/01/14 00:35:28;;;;;;;56.70;27.87;;;;;;;;;;5076374;28;20232;-71
2022/01/14 00:37:58;;;;;;;52.07;26.60;;;;;;;;;;5075015;28;20223;-72
2022/01/14 00:40:27;;;;;;;53.90;27.00;;;;;;;;;;5076154;28;20202;-73
2022/01/14 00:42:55;;;;;;;52.03;26.93;;;;;;;;;;5074771;28;20235;-72
2022/01/14 00:45:24;;;;;;;60.80;27.77;;;;;;;;;;5074824;28;20264;-73
2022/01/14 00:47:53;;;;;;;56.40;27.80;;;;;;;;;;5075343;28;20220;-74
2022/01/14 00:50:21;;;;;;;53.27;27.47;;;;;;;;;;5076029;28;20204;-71
2022/01/14 00:52:50;;;;;;;53.60;26.60;;;;;;;;;;5075230;28;20614;-73
2022/01/14 00:55:27;;;;;;;52.43;26.67;;;;;;;;;;5075987;28;20203;-72
2022/01/14 01:00:42;;;;;;;53.47;26.33;;;;;;;;;;5062670;28;20248;-73
2022/01/14 01:03:10;;;;;;;49.03;26.87;;;;;;;;;;5075038;28;20200;-73
2022/01/14 01:05:39;;;;;;;52.20;26.00;;;;;;;;;;5072042;28;20266;-71
2022/01/14 01:08:10;;;;;;;48.10;26.63;;;;;;;;;;5066645;28;20988;-73
2022/01/14 01:10:47;;;;;;;49.80;26.50;;;;;;;;;;5074304;28;20268;-73
2022/01/14 01:13:21;;;;;;;52.57;26.83;;;;;;;;;;5075172;28;20204;-71
2022/01/14 01:15:50;;;;;;;50.60;26.87;;;;;;;;;;5074754;28;20211;-71
2022/01/14 01:18:19;;;;;;;50.53;26.10;;;;;;;;;;5075635;28;20654;-71
2022/01/14 01:20:48;;;;;;;55.63;26.93;;;;;;;;;;5075570;28;20198;-73
2022/01/14 01:23:16;;;;;;;59.50;27.63;;;;;;;;;;5074470;28;20666;-73
2022/01/14 01:25:50;;;;;;;54.03;26.90;;;;;;;;;;5075167;28;20205;-73
2022/01/14 01:28:19;;;;;;;53.20;26.97;;;;;;;;;;5074772;28;20278;-73
2022/01/14 01:30:52;;;;;;;57.30;28.37;;;;;;;;;;5075452;28;20210;-72
2022/01/14 01:33:23;;;;;;;54.53;27.90;;;;;;;;;;5074973;28;20661;-71
2022/01/14 01:35:51;;;;;;;56.23;26.90;;;;;;;;;;5073099;28;20589;-72
2022/01/14 01:38:19;;;;;;;60.03;27.60;;;;;;;;;;5074470;28;20353;-71
2022/01/14 01:40:49;;;;;;;66.10;28.00;;;;;;;;;;5073715;28;20262;-73
2022/01/14 01:43:20;;;;;;;61.10;29.10;;;;;;;;;;5074835;28;20681;-71
2022/01/14 01:45:50;;;;;;;59.20;28.40;;;;;;;;;;5068859;28;20214;-73
2022/01/14 01:48:19;;;;;;;62.10;28.63;;;;;;;;;;5073941;28;20229;-71
2022/01/14 01:50:47;;;;;;;58.40;26.37;;;;;;;;;;5075026;28;20567;-73
2022/01/14 01:53:16;;;;;;;61.80;29.83;;;;;;;;;;5074817;28;20207;-72
2022/01/14 01:55:44;;;;;;;63.03;28.90;;;;;;;;;;5073997;28;20542;-72
2022/01/14 01:58:14;;;;;;;56.30;27.63;;;;;;;;;;5074849;28;20265;-72
2022/01/14 02:00:42;;;;;;;64.10;28.17;;;;;;;;;;5073602;28;20195;-71
2022/01/14 02:03:14;;;;;;;63.17;29.50;;;;;;;;;;5074254;28;20291;-71
2022/01/14 02:05:42;;;;;;;62.90;29.53;;;;;;;;;;5073883;28;20269;-72
2022/01/14 02:08:11;;;;;;;68.63;29.83;;;;;;;;;;5074826;28;20256;-73
2022/01/14 02:10:39;;;;;;;64.77;29.47;;;;;;;;;;5073406;28;20198;-73
2022/01/14 02:13:10;;;;;;;65.70;30.07;;;;;;;;;;5073064;28;20264;-73
2022/01/14 02:15:47;;;;;;;64.00;29.03;;;;;;;;;;5073224;28;20232;-73
2022/01/14 02:24:08;;;;;;;66.50;29.87;;;;;;;;;;5074428;28;20195;-73
2022/01/14 02:26:46;;;;;;;66.20;29.43;;;;;;;;;;5073532;28;20255;-72
2022/01/14 02:29:15;;;;;;;60.90;29.40;;;;;;;;;;5062806;28;20275;-73
2022/01/14 02:31:43;;;;;;;69.87;30.57;;;;;;;;;;5073226;28;20268;-73
2022/01/14 02:34:13;;;;;;;74.00;30.87;;;;;;;;;;5074229;28;20203;-73
2022/01/14 02:36:43;;;;;;;67.73;30.20;;;;;;;;;;5073055;28;20219;-72
2022/01/14 02:39:12;;;;;;;73.47;31.23;;;;;;;;;;5072650;28;20202;-72
2022/01/14 02:41:42;;;;;;;67.83;29.90;;;;;;;;;;5072974;28;20259;-72
2022/01/14 02:44:11;;;;;;;68.47;28.77;;;;;;;;;;5074062;28;20207;-72
2022/01/14 02:46:42;;;;;;;70.50;29.97;;;;;;;;;;5073528;28;20193;-73
2022/01/14 02:49:11;;;;;;;69.23;29.87;;;;;;;;;;5073729;28;20532;-71
2022/01/14 02:51:39;;;;;;;72.13;29.90;;;;;;;;;;5072337;28;20211;-72
2022/01/14 02:54:12;;;;;;;62.70;29.17;;;;;;;;;;5074010;28;20203;-71
2022/01/14 02:56:43;;;;;;;68.50;29.13;;;;;;;;;;5072918;28;20211;-72
2022/01/14 02:59:12;;;;;;;71.70;29.70;;;;;;;;;;5072463;28;20650;-73
2022/01/14 03:01:40;;;;;;;67.50;27.33;;;;;;;;;;5072782;28;20254;-71
2022/01/14 03:04:09;;;;;;;66.33;29.40;;;;;;;;;;5072761;28;20256;-74
2022/01/14 03:06:38;;;;;;;74.73;29.80;;;;;;;;;;5073457;28;20214;-72
2022/01/14 03:09:06;;;;;;;74.10;29.63;;;;;;;;;;5072118;28;20209;-70
2022/01/14 03:11:37;;;;;;;73.03;31.00;;;;;;;;;;5072432;28;20202;-71
2022/01/14 03:14:05;;;;;;;73.60;28.37;;;;;;;;;;5073246;28;20203;-72
2022/01/14 03:16:39;;;;;;;68.20;28.87;;;;;;;;;;5071850;28;20207;-73
2022/01/14 03:19:13;;;;;;;69.03;28.53;;;;;;;;;;5069480;28;20549;-73
2022/01/14 03:21:42;;;;;;;66.27;27.87;;;;;;;;;;5073647;28;20196;-74
2022/01/14 03:24:19;;;;;;;68.23;29.07;;;;;;;;;;5077111;28;20200;-72
2022/01/14 03:26:50;;;;;;;67.90;28.03;;;;;;;;;;5072772;28;20202;-73
2022/01/14 03:29:19;;;;;;;72.00;28.07;;;;;;;;;;5073301;28;20629;-73
2022/01/14 03:31:48;;;;;;;75.70;28.07;;;;;;;;;;5072371;28;20197;-72
2022/01/14 03:34:17;;;;;;;72.07;29.17;;;;;;;;;;5073002;28;20780;-73
2022/01/14 03:36:46;;;;;;;70.27;28.43;;;;;;;;;;5067052;28;20251;-73
2022/01/14 03:39:16;;;;;;;70.10;29.07;;;;;;;;;;5073075;28;20623;-74
2022/01/14 03:41:45;;;;;;;69.53;27.80;;;;;;;;;;5056730;28;20332;-71
2022/01/14 03:44:15;;;;;;;75.03;30.23;;;;;;;;;;5072773;28;20258;-73
2022/01/14 03:46:43;;;;;;;73.50;28.50;;;;;;;;;;5060032;28;20264;-72
2022/01/14 03:49:12;;;;;;;71.70;28.47;;;;;;;;;;5052919;28;20254;-73
2022/01/14 03:51:41;;;;;;;65.23;28.20;;;;;;;;;;5071021;28;20334;-71
2022/01/14 03:54:10;;;;;;;67.83;27.70;;;;;;;;;;5072859;28;20380;-72
2022/01/14 03:56:39;;;;;;;73.43;27.90;;;;;;;;;;5071970;28;20208;-72
2022/01/14 03:59:07;;;;;;;67.70;29.20;;;;;;;;;;5071845;28;20666;-72
2022/01/14 04:01:37;;;;;;;59.77;27.57;;;;;;;;;;5072523;28;20209;-72
2022/01/14 04:04:05;;;;;;;72.80;27.77;;;;;;;;;;5075167;28;20207;-71
2022/01/14 04:06:34;;;;;;;74.13;30.47;;;;;;;;;;5066151;28;20208;-72
2022/01/14 04:09:02;;;;;;;65.87;30.17;;;;;;;;;;5070572;28;20251;-72
2022/01/14 04:11:33;;;;;;;68.17;29.00;;;;;;;;;;5075347;28;20206;-74
2022/01/14 04:15:36;;;;;;;60.10;30.80;;;;;;;;;;5075862;28;20209;-74
2022/01/14 04:16:58;;;;;;;65.97;29.87;;;;;;;;;;5073686;28;20213;-72
2022/01/14 04:19:27;;;;;;;60.57;30.80;;;;;;;;;;5076881;28;20272;-74
2022/01/14 04:21:56;;;;;;;58.50;28.87;;;;;;;;;;5071766;28;20200;-74
2022/01/14 04:24:24;;;;;;;55.87;27.77;;;;;;;;;;5076720;28;20209;-75
2022/01/14 04:26:53;;;;;;;57.37;28.63;;;;;;;;;;5075034;28;20318;-73
2022/01/14 04:29:21;;;;;;;57.93;28.23;;;;;;;;;;5076018;28;20200;-74
2022/01/14 04:31:50;;;;;;;66.23;30.30;;;;;;;;;;5075043;28;20258;-72
2022/01/14 04:34:19;;;;;;;63.60;29.63;;;;;;;;;;5075478;28;20262;-72
2022/01/14 04:36:48;;;;;;;56.70;27.90;;;;;;;;;;5075751;28;20213;-72
2022/01/14 04:39:16;;;;;;;56.57;29.03;;;;;;;;;;5075787;28;20218;-72
2022/01/14 04:41:45;;;;;;;59.93;28.80;;;;;;;;;;5074903;28;20203;-73
2022/01/14 04:44:15;;;;;;;61.87;29.30;;;;;;;;;;5073683;28;20207;-73
2022/01/14 04:47:02;;;;;;;58.70;27.73;;;;;;;;;;5075085;28;20196;-72
2022/01/14 04:49:32;;;;;;;61.97;27.77;;;;;;;;;;5056324;28;20594;-72
2022/01/14 04:52:01;;;;;;;58.20;28.60;;;;;;;;;;5075957;28;20545;-73
2022/01/14 04:54:29;;;;;;;59.90;27.83;;;;;;;;;;5075719;28;20601;-73
2022/01/14 04:56:57;;;;;;;56.30;28.63;;;;;;;;;;5074958;28;20682;-71
2022/01/14 04:59:26;;;;;;;57.23;28.13;;;;;;;;;;5076218;28;20221;-72
2022/01/14 05:01:56;;;;;;;62.00;28.97;;;;;;;;;;5075023;28;20223;-72
2022/01/14 05:04:25;;;;;;;63.00;28.23;;;;;;;;;;5075742;28;20291;-72
2022/01/14 05:07:01;;;;;;;62.43;27.83;;;;;;;;;;5074693;28;20215;-72
2022/01/14 05:09:35;;;;;;;59.70;29.17;;;;;;;;;;5075119;28;20607;-73
2022/01/14 05:12:09;;;;;;;59.60;28.23;;;;;;;;;;5073293;28;20273;-71
2022/01/14 05:14:38;;;;;;;59.60;27.03;;;;;;;;;;5074298;28;20210;-72
2022/01/14 05:17:06;;;;;;;62.63;27.63;;;;;;;;;;5075074;28;20220;-73
2022/01/14 05:19:35;;;;;;;59.97;27.93;;;;;;;;;;5073591;28;20618;-74
2022/01/14 05:22:05;;;;;;;60.30;29.70;;;;;;;;;;5074534;28;20299;-73
2022/01/14 05:24:34;;;;;;;62.00;28.80;;;;;;;;;;5075492;28;20654;-72
2022/01/14 05:27:02;;;;;;;66.20;28.90;;;;;;;;;;5073820;28;20275;-74
2022/01/14 05:29:31;;;;;;;62.13;28.80;;;;;;;;;;5072232;28;20204;-73
2022/01/14 05:32:03;;;;;;;62.80;29.17;;;;;;;;;;5074672;28;20251;-71
2022/01/14 05:34:31;;;;;;;62.50;29.03;;;;;;;;;;5074248;28;20202;-73
2022/01/14 05:37:00;;;;;;;57.17;28.40;;;;;;;;;;5074215;28;20231;-73
2022/01/14 05:39:29;;;;;;;67.43;29.50;;;;;;;;;;5074734;28;20219;-72
2022/01/14 05:41:59;;;;;;;62.70;29.53;;;;;;;;;;5063456;28;20197;-73
2022/01/14 05:44:28;;;;;;;63.87;29.07;;;;;;;;;;5077550;28;20613;-71
2022/01/14 05:46:57;;;;;;;65.87;29.47;;;;;;;;;;5055364;28;20276;-73
2022/01/14 05:49:26;;;;;;;63.33;29.20;;;;;;;;;;5074600;28;20257;-71
2022/01/14 05:51:54;;;;;;;64.40;29.43;;;;;;;;;;5074899;28;20235;-71
2022/01/14 05:54:22;;;;;;;61.07;28.63;;;;;;;;;;5089338;28;20243;-72
2022/01/14 05:56:52;;;;;;;68.53;30.40;;;;;;;;;;5076256;28;20202;-73
2022/01/14 05:59:21;;;;;;;66.93;28.50;;;;;;;;;;5078497;28;20220;-74
2022/01/14 06:01:49;;;;;;;68.77;30.17;;;;;;;;;;5073501;28;20200;-72
2022/01/14 06:04:18;;;;;;;64.37;29.40;;;;;;;;;;5073688;28;20208;-73
2022/01/14 06:06:46;;;;;;;61.00;29.20;;;;;;;;;;5069344;28;20251;-72
2022/01/14 06:09:14;;;;;;;71.20;30.17;;;;;;;;;;5072976;28;20642;-73
2022/01/14 06:11:43;;;;;;;65.03;28.97;;;;;;;;;;5075084;28;20692;-71
2022/01/14 06:14:13;;;;;;;68.70;30.17;;;;;;;;;;5072755;28;20647;-73
2022/01/14 06:16:42;;;;;;;60.53;29.17;;;;;;;;;;5072724;28;20207;-73
2022/01/14 06:19:10;;;;;;;64.23;29.30;;;;;;;;;;5073343;27;20244;-71
2022/01/14 06:21:38;;;;;;;56.40;27.57;;;;;;;;;;5073916;28;20665;-73
2022/01/14 06:24:12;;;;;;;57.57;28.30;;;;;;;;;;5083295;28;20266;-73
2022/01/14 06:26:46;;;;;;;58.67;27.80;;;;;;;;;;5085828;28;20204;-71
2022/01/14 06:29:21;;;;;;;58.70;27.53;;;;;;;;;;5084351;28;20595;-72
2022/01/14 06:31:50;;;;;;;57.87;27.03;;;;;;;;;;5081687;28;20192;-71
2022/01/14 06:34:18;;;;;;;58.10;27.70;;;;;;;;;;5073286;28;20194;-72
2022/01/14 06:36:47;;;;;;;57.87;26.37;;;;;;;;;;5064107;28;20253;-72
2022/01/14 06:39:15;;;;;;;58.23;27.43;;;;;;;;;;5059926;28;20620;-71
2022/01/14 06:41:44;;;;;;;56.73;26.30;;;;;;;;;;5056548;28;20255;-73
2022/01/14 06:44:13;;;;;;;57.73;26.73;;;;;;;;;;5064510;28;20208;-73
2022/01/14 06:46:43;;;;;;;58.53;27.17;;;;;;;;;;5073498;28;20210;-71
2022/01/14 06:49:11;;;;;;;54.83;28.07;;;;;;;;;;5073263;28;20252;-71
2022/01/14 06:51:40;;;;;;;57.17;26.63;;;;;;;;;;5073926;28;20203;-74
2022/01/14 06:54:08;;;;;;;57.93;26.57;;;;;;;;;;5074433;28;20200;-72
2022/01/14 06:56:38;;;;;;;60.13;27.37;;;;;;;;;;5074074;28;20235;-72
2022/01/14 06:59:12;;;;;;;58.30;27.60;;;;;;;;;;5077011;28;20248;-71
2022/01/14 07:01:40;;;;;;;59.43;27.83;;;;;;;;;;5093904;28;20218;-73
2022/01/14 07:04:11;;;;;;;62.50;28.27;;;;;;;;;;5079603;28;20198;-73
2022/01/14 07:06:39;;;;;;;61.60;27.83;;;;;;;;;;5073810;28;20283;-71
2022/01/14 07:09:08;;;;;;;58.50;28.87;;;;;;;;;;5075755;28;20206;-73
2022/01/14 07:11:37;;;;;;;59.70;27.03;;;;;;;;;;5093950;28;20274;-72
2022/01/14 07:14:06;;;;;;;59.70;26.80;;;;;;;;;;5089036;28;20202;-73
2022/01/14 07:16:34;;;;;;;61.47;28.37;;;;;;;;;;5077180;28;20664;-73
2022/01/14 07:19:03;;;;;;;61.17;27.77;;;;;;;;;;5054905;28;20558;-73
2022/01/14 07:21:34;;;;;;;58.07;27.70;;;;;;;;;;5093932;28;20561;-73
2022/01/14 07:24:03;;;;;;;60.73;28.53;;;;;;;;;;5093367;28;20214;-72
2022/01/14 07:26:31;;;;;;;57.80;28.10;;;;;;;;;;5053475;28;20213;-73
2022/01/14 07:29:00;;;;;;;60.37;28.17;;;;;;;;;;5080783;28;20236;-72
2022/01/14 07:31:28;;;;;;;57.73;27.30;;;;;;;;;;5076016;28;20202;-72
2022/01/14 07:33:57;;;;;;;59.20;27.10;;;;;;;;;;5092476;28;20194;-72
2022/01/14 07:36:25;;;;;;;57.53;28.30;;;;;;;;;;5083231;28;20196;-73
2022/01/14 07:38:55;;;;;;;61.83;28.53;;;;;;;;;;5082749;28;20750;-72
2022/01/14 07:41:23;;;;;;;60.33;28.27;;;;;;;;;;5093413;28;20194;-72
2022/01/14 07:43:51;;;;;;;57.80;28.23;;;;;;;;;;5059932;28;20242;-72
2022/01/14 07:46:20;;;;;;;56.87;29.17;;;;;;;;;;5073015;28;20264;-72
2022/01/14 07:48:48;;;;;;;56.47;27.43;;;;;;;;;;5091880;28;20267;-72
2022/01/14 07:51:17;;;;;;;38.10;18.97;;;;;;;;;;5093449;28;20200;-73
2022/01/14 07:53:45;;;;;;;0.00;0.00;;;;;;;;;;5092670;28;20615;-73
2022/01/14 07:56:16;;;;;;;0.00;0.00;;;;;;;;;;5093196;28;20688;-72
2022/01/14 07:58:44;;;;;;;0.00;0.00;;;;;;;;;;5077315;28;20225;-72
2022/01/14 08:01:13;;;;;;;0.00;0.00;;;;;;;;;;5072813;28;20721;-71
2022/01/14 08:03:42;;;;;;;0.00;0.00;;;;;;;;;;5088891;28;20548;-72
2022/01/14 08:06:10;;;;;;;0.00;0.00;;;;;;;;;;5083787;28;20204;-72
2022/01/14 08:08:39;;;;;;;0.00;0.00;;;;;;;;;;5082102;28;20272;-72
2022/01/14 08:11:07;;;;;;;0.00;0.00;;;;;;;;;;5082473;28;20572;-72
2022/01/14 08:13:37;;;;;;;0.00;0.00;;;;;;;;;;5084604;28;20226;-73
2022/01/14 08:16:06;;;;;;;0.00;0.00;;;;;;;;;;5072485;28;20203;-73
2022/01/14 08:18:36;;;;;;;0.00;0.00;;;;;;;;;;5072631;28;20227;-72
2022/01/14 08:21:05;;;;;;;0.00;0.00;;;;;;;;;;5072958;28;20216;-72
2022/01/14 08:23:33;;;;;;;0.00;0.00;;;;;;;;;;5072975;28;20568;-74
2022/01/14 08:26:02;;;;;;;0.00;0.00;;;;;;;;;;5073493;28;20288;-72
2022/01/14 08:28:30;;;;;;;0.00;0.00;;;;;;;;;;5075089;28;20738;-73
2022/01/14 08:31:00;;;;;;;0.00;0.00;;;;;;;;;;5072734;28;20253;-72
2022/01/14 08:33:29;;;;;;;0.00;0.00;;;;;;;;;;5073328;28;20197;-72
2022/01/14 08:35:57;;;;;;;0.00;0.00;;;;;;;;;;5072019;28;20260;-73
2022/01/14 08:38:25;;;;;;;0.00;0.00;;;;;;;;;;5072954;28;20706;-73
2022/01/14 08:40:54;;;;;;;0.00;0.00;;;;;;;;;;5072776;28;20227;-71
2022/01/14 08:43:22;;;;;;;0.00;0.00;;;;;;;;;;5075815;28;20241;-74
2022/01/14 08:45:51;;;;;;;0.00;0.00;;;;;;;;;;5072207;28;20221;-74
2022/01/14 08:48:20;;;;;;;0.00;0.00;;;;;;;;;;5075246;28;20280;-73
2022/01/14 08:50:49;;;;;;;0.00;0.00;;;;;;;;;;5095090;28;20196;-74
2022/01/14 08:53:17;;;;;;;0.00;0.00;;;;;;;;;;5094854;28;20206;-74
2022/01/14 08:55:46;;;;;;;0.00;0.00;;;;;;;;;;5076375;28;20283;-73
2022/01/14 08:58:15;;;;;;;0.00;0.00;;;;;;;;;;5075708;28;20215;-73
2022/01/14 09:00:43;;;;;;;0.00;0.00;;;;;;;;;;5075989;28;20266;-72
2022/01/14 09:03:12;;;;;;;0.00;0.00;;;;;;;;;;5075828;28;20205;-71
2022/01/14 09:05:42;;;;;;;0.00;0.00;;;;;;;;;;5076015;28;20216;-72
2022/01/14 09:08:10;;;;;;;0.00;0.00;;;;;;;;;;5089608;28;20264;-71
2022/01/14 09:10:40;;;;;;;0.00;0.00;;;;;;;;;;5075695;28;20201;-71
2022/01/14 09:13:08;;;;;;;0.00;0.00;;;;;;;;;;5078799;28;20248;-72
2022/01/14 09:15:37;;;;;;;0.00;0.00;;;;;;;;;;5076662;28;20213;-72
2022/01/14 09:18:05;;;;;;;0.00;0.00;;;;;;;;;;5094609;28;20284;-72
2022/01/14 09:20:34;;;;;;;0.00;0.00;;;;;;;;;;5095956;28;20218;-72
2022/01/14 09:23:04;;;;;;;0.00;0.00;;;;;;;;;;5095039;28;20273;-72
2022/01/14 09:25:32;;;;;;;0.00;0.00;;;;;;;;;;5084015;28;20197;-73
2022/01/14 09:28:01;;;;;;;0.00;0.00;;;;;;;;;;5075641;28;20250;-73
2022/01/14 09:30:29;;;;;;;0.00;0.00;;;;;;;;;;5076329;28;20257;-72
2022/01/14 09:32:57;;;;;;;0.00;0.00;;;;;;;;;;5075886;28;20202;-74
2022/01/14 09:35:26;;;;;;;0.00;0.00;;;;;;;;;;5075868;28;20215;-73
2022/01/14 09:37:54;;;;;;;0.00;0.00;;;;;;;;;;5075668;28;20224;-73
2022/01/14 09:40:27;;;;;;;0.00;0.00;;;;;;;;;;5082548;28;20223;-72
2022/01/14 09:43:00;;;;;;;0.00;0.00;;;;;;;;;;5075377;28;20205;-73
2022/01/14 09:45:51;;;;;;;0.00;0.00;;;;;;;;;;5054970;28;20741;-73
2022/01/14 09:48:20;;;;;;;1.33;0.50;;;;;;;;;;5069965;28;20224;-72
2022/01/14 09:50:48;;;;;;;6.83;3.23;;;;;;;;;;5092203;28;20242;-73
2022/01/14 09:53:17;;;;;;;18.37;9.33;;;;;;;;;;5083825;28;20200;-73
2022/01/14 09:55:47;;;;;;;36.07;16.90;;;;;;;;;;5075080;28;20658;-72
2022/01/14 09:58:16;;;;;;;37.50;18.33;;;;;;;;;;5075080;28;20225;-72
2022/01/14 10:00:45;;;;;;;46.57;23.10;;;;;;;;;;5073933;28;20625;-72
2022/01/14 10:03:20;;;;;;;40.20;19.10;;;;;;;;;;5075011;28;20562;-72
2022/01/14 10:05:51;;;;;;;49.23;22.43;;;;;;;;;;5074292;28;20663;-72
2022/01/14 10:08:22;;;;;;;28.97;15.20;;;;;;;;;;5074607;28;20233;-72
2022/01/14 10:10:55;;;;;;;35.57;17.53;;;;;;;;;;5074904;28;20250;-72
2022/01/14 10:13:24;;;;;;;44.80;20.37;;;;;;;;;;5074579;28;20628;-72
2022/01/14 10:15:54;;;;;;;60.50;27.77;;;;;;;;;;5074499;28;20256;-73
2022/01/14 10:18:23;;;;;;;44.80;22.73;;;;;;;;;;5074409;28;20218;-73
2022/01/14 10:20:52;;;;;;;53.37;27.37;;;;;;;;;;5074598;28;20230;-72
2022/01/14 10:23:39;;;;;;;52.53;25.53;;;;;;;;;;5074598;28;20205;-72
2022/01/14 10:26:09;;;;;;;52.03;25.87;;;;;;;;;;5074797;28;20208;-72
2022/01/14 10:28:37;;;;;;;53.07;25.73;;;;;;;;;;5074110;28;20661;-72
2022/01/14 10:31:06;;;;;;;46.47;23.77;;;;;;;;;;5074650;28;20232;-72
2022/01/14 10:33:35;;;;;;;52.27;26.10;;;;;;;;;;5074429;28;20279;-73
2022/01/14 10:36:04;;;;;;;50.30;27.07;;;;;;;;;;5073942;28;20611;-72
2022/01/14 10:38:38;;;;;;;46.13;25.77;;;;;;;;;;5073970;28;20230;-73
2022/01/14 10:41:10;;;;;;;47.27;25.70;;;;;;;;;;5074158;28;20734;-73
2022/01/14 10:43:45;;;;;;;48.20;25.70;;;;;;;;;;5081473;28;20205;-72
2022/01/14 10:46:13;;;;;;;43.20;23.03;;;;;;;;;;5093821;28;20205;-73
2022/01/14 10:48:43;;;;;;;43.50;23.77;;;;;;;;;;5075747;28;20258;-72
2022/01/14 10:51:12;;;;;;;40.20;23.60;;;;;;;;;;5074004;28;20665;-72
2022/01/14 10:53:44;;;;;;;37.60;19.73;;;;;;;;;;5074342;28;20244;-73
2022/01/14 10:56:15;;;;;;;42.63;24.17;;;;;;;;;;5074383;28;20244;-73
2022/01/14 10:58:45;;;;;;;41.57;22.43;;;;;;;;;;5073869;28;20225;-74
2022/01/14 11:01:15;;;;;;;47.07;23.50;;;;;;;;;;5073445;28;20214;-73
2022/01/14 11:03:45;;;;;;;47.43;24.73;;;;;;;;;;5073779;28;20216;-73
2022/01/14 11:06:18;;;;;;;41.50;22.73;;;;;;;;;;5073711;28;20205;-73
2022/01/14 11:08:47;;;;;;;40.07;22.07;;;;;;;;;;5073884;28;20232;-73
2022/01/14 11:11:17;;;;;;;44.50;24.17;;;;;;;;;;5073734;28;20228;-72
2022/01/14 11:13:46;;;;;;;41.00;23.17;;;;;;;;;;5073155;28;20646;-72
2022/01/14 11:16:15;;;;;;;46.50;23.63;;;;;;;;;;5073666;28;20670;-73
2022/01/14 11:18:44;;;;;;;47.37;23.63;;;;;;;;;;5088285;28;20624;-72
2022/01/14 11:23:58;;;;;;;42.80;23.83;;;;;;;;;;5077563;28;20244;-72
2022/01/14 11:26:31;;;;;;;43.17;23.07;;;;;;;;;;5073577;28;20194;-73
2022/01/14 11:29:04;;;;;;;41.53;22.57;;;;;;;;;;5072886;28;20245;-73
2022/01/14 11:31:33;;;;;;;45.93;22.70;;;;;;;;;;5078154;28;20590;-73
2022/01/14 11:34:03;;;;;;;41.73;23.70;;;;;;;;;;5093840;28;20201;-72
2022/01/14 11:36:46;;;;;;;41.80;23.03;;;;;;;;;;5085555;28;20645;-73
2022/01/14 11:39:21;;;;;;;51.33;23.87;;;;;;;;;;5082330;28;20213;-73
2022/01/14 11:41:55;;;;;;;42.10;22.37;;;;;;;;;;5082832;28;20228;-73
2022/01/14 11:44:42;;;;;;;44.43;23.53;;;;;;;;;;5084334;28;20209;-73
2022/01/14 11:47:38;;;;;;;43.00;24.07;;;;;;;;;;5079447;28;20761;-73
2022/01/14 11:50:07;;;;;;;43.40;22.00;;;;;;;;;;5093020;28;20691;-73
2022/01/14 11:52:37;;;;;;;42.80;22.27;;;;;;;;;;5077838;28;20194;-72
2022/01/14 11:55:06;;;;;;;40.60;21.30;;;;;;;;;;5070189;28;20198;-73
2022/01/14 11:57:45;;;;;;;42.50;22.03;;;;;;;;;;5087635;28;20220;-74
2022/01/14 12:00:30;;;;;;;46.00;22.70;;;;;;;;;;5092986;28;20715;-72
2022/01/14 12:02:59;;;;;;;37.90;22.03;;;;;;;;;;5092538;28;20228;-73
2022/01/14 12:05:28;;;;;;;42.87;23.40;;;;;;;;;;5089731;28;20203;-72
2022/01/14 12:08:13;;;;;;;39.97;22.37;;;;;;;;;;5072787;28;20283;-73
2022/01/14 12:10:48;;;;;;;39.50;22.37;;;;;;;;;;5072907;28;20221;-73
2022/01/14 12:13:24;;;;;;;44.10;23.27;;;;;;;;;;5091589;28;20239;-73
2022/01/14 12:15:58;;;;;;;44.43;23.00;;;;;;;;;;5057310;28;20207;-74
2022/01/14 12:18:45;;;;;;;44.97;21.67;;;;;;;;;;5092542;28;20319;-73
2022/01/14 12:21:14;;;;;;;41.90;22.73;;;;;;;;;;5088652;28;20253;-74
2022/01/14 12:23:43;;;;;;;44.57;22.73;;;;;;;;;;5072749;28;20688;-73
2022/01/14 12:26:15;;;;;;;45.13;23.40;;;;;;;;;;5077179;28;20206;-73
2022/01/14 12:28:46;;;;;;;43.23;22.90;;;;;;;;;;5076374;28;20228;-72
2022/01/14 12:31:14;;;;;;;45.63;23.80;;;;;;;;;;5076911;28;20194;-73
2022/01/14 12:33:45;;;;;;;44.90;23.43;;;;;;;;;;5076838;28;20202;-72
2022/01/14 12:36:14;;;;;;;46.97;25.93;;;;;;;;;;5078555;28;20210;-73
2022/01/14 12:38:43;;;;;;;40.70;24.13;;;;;;;;;;5076178;28;20291;-71
2022/01/14 12:41:15;;;;;;;57.80;36.17;;;;;;;;;;5076653;28;20218;-71
2022/01/14 12:43:51;;;;;;;52.37;27.07;;;;;;;;;;5076376;28;20281;-73
2022/01/14 12:46:35;;;;;;;45.50;26.17;;;;;;;;;;5056477;28;20246;-74
2022/01/14 12:49:07;;;;;;;44.63;30.20;;;;;;;;;;5074736;28;20308;-72
2022/01/14 12:51:35;;;;;;;52.27;26.13;;;;;;;;;;5096791;28;20197;-73
2022/01/14 12:54:05;;;;;;;45.60;24.10;;;;;;;;;;5094556;28;20661;-73
2022/01/14 12:56:35;;;;;;;44.80;25.27;;;;;;;;;;5076047;28;20609;-74
2022/01/14 12:59:06;;;;;;;47.50;24.23;;;;;;;;;;5077000;28;20198;-73
2022/01/14 13:01:36;;;;;;;47.93;25.53;;;;;;;;;;5096429;28;20202;-72
2022/01/14 13:04:08;;;;;;;52.83;24.63;;;;;;;;;;5094984;28;20700;-72
2022/01/14 13:06:43;;;;;;;46.43;25.20;;;;;;;;;;5075920;28;20208;-72
2022/01/14 13:09:12;;;;;;;47.60;25.20;;;;;;;;;;5077088;28;20275;-72
2022/01/14 13:11:47;;;;;;;48.57;25.27;;;;;;;;;;5074687;28;20202;-74
2022/01/14 13:14:20;;;;;;;49.83;26.20;;;;;;;;;;5070607;28;20195;-72
2022/01/14 13:16:51;;;;;;;49.30;25.33;;;;;;;;;;5074280;28;20654;-72
2022/01/14 13:19:23;;;;;;;49.10;25.53;;;;;;;;;;5073353;28;20663;-74
2022/01/14 13:21:52;;;;;;;52.17;26.53;;;;;;;;;;5076094;28;20206;-72
2022/01/14 13:24:21;;;;;;;48.43;25.17;;;;;;;;;;5076714;28;20229;-74
2022/01/14 13:27:03;;;;;;;51.43;25.80;;;;;;;;;;5076333;28;20720;-73
2022/01/14 13:29:47;;;;;;;45.97;24.90;;;;;;;;;;5075527;28;20198;-72
2022/01/14 13:32:17;;;;;;;44.27;23.83;;;;;;;;;;5070690;28;20201;-72
2022/01/14 13:34:50;;;;;;;45.93;25.47;;;;;;;;;;5077995;28;20232;-72
2022/01/14 13:37:19;;;;;;;44.67;24.47;;;;;;;;;;5076059;28;20230;-72
2022/01/14 13:40:01;;;;;;;49.47;27.00;;;;;;;;;;5075342;28;20252;-72
2022/01/14 13:42:30;;;;;;;50.53;26.87;;;;;;;;;;5081710;28;20259;-73
2022/01/14 13:45:07;;;;;;;49.60;26.43;;;;;;;;;;5072348;28;20276;-73
2022/01/14 13:47:36;;;;;;;46.63;25.33;;;;;;;;;;5070854;28;20712;-74
2022/01/14 13:50:08;;;;;;;49.43;25.87;;;;;;;;;;5075527;28;20197;-72
2022/01/14 13:52:36;;;;;;;50.43;25.97;;;;;;;;;;5067961;28;20249;-74
2022/01/14 13:55:05;;;;;;;45.67;25.83;;;;;;;;;;5084830;28;20199;-73
2022/01/14 13:57:34;;;;;;;47.80;26.23;;;;;;;;;;5066559;28;20222;-71
2022/01/14 14:00:08;;;;;;;50.13;25.33;;;;;;;;;;5074796;28;20659;-72
2022/01/14 14:02:37;;;;;;;50.67;27.23;;;;;;;;;;5075037;28;20240;-72
2022/01/14 14:05:05;;;;;;;51.03;26.33;;;;;;;;;;5074971;28;20194;-73
2022/01/14 14:07:47;;;;;;;53.47;26.17;;;;;;;;;;5073198;28;20226;-75
2022/01/14 14:10:31;;;;;;;52.13;27.03;;;;;;;;;;4736653;28;10001036;-72
2022/01/14 14:13:09;;;;;;;52.90;26.90;;;;;;;;;;5071923;28;20199;-75
2022/01/14 14:15:48;;;;;;;47.57;26.23;;;;;;;;;;5071047;28;20210;-74
2022/01/14 14:18:17;;;;;;;52.60;26.20;;;;;;;;;;5070701;28;20337;-73
2022/01/14 14:20:45;;;;;;;50.50;26.30;;;;;;;;;;5083459;28;20221;-72
2022/01/14 14:23:17;;;;;;;54.37;27.07;;;;;;;;;;5069954;28;20771;-73
2022/01/14 14:25:46;;;;;;;57.37;28.73;;;;;;;;;;5068332;28;20199;-72
2022/01/14 14:28:16;;;;;;;59.13;29.17;;;;;;;;;;5083094;28;20217;-73
2022/01/14 14:30:46;;;;;;;56.13;27.60;;;;;;;;;;5075016;28;20202;-74
2022/01/14 14:33:16;;;;;;;51.73;28.17;;;;;;;;;;5060959;28;20207;-72
2022/01/14 14:35:45;;;;;;;61.70;28.87;;;;;;;;;;5057341;28;20217;-72
2022/01/14 14:38:17;;;;;;;56.43;29.67;;;;;;;;;;5071742;28;20248;-72
2022/01/14 14:40:50;;;;;;;58.50;29.37;;;;;;;;;;5070898;28;20210;-72
2022/01/14 14:43:18;;;;;;;62.57;30.13;;;;;;;;;;5085032;28;20259;-73
2022/01/14 14:45:47;;;;;;;59.53;29.50;;;;;;;;;;5053615;28;20218;-73
2022/01/14 14:48:17;;;;;;;59.27;29.43;;;;;;;;;;5068987;28;20232;-74
2022/01/14 14:50:45;;;;;;;62.60;31.10;;;;;;;;;;5068622;28;20198;-73
2022/01/14 14:53:14;;;;;;;62.80;30.73;;;;;;;;;;5070440;28;20207;-74
2022/01/14 14:55:43;;;;;;;65.97;31.97;;;;;;;;;;5077227;28;20271;-72
2022/01/14 14:58:11;;;;;;;63.57;30.77;;;;;;;;;;5091823;28;20796;-73
2022/01/14 15:00:40;;;;;;;63.33;32.50;;;;;;;;;;5080820;28;20602;-74